Time;durP1;ratioP1;P1;durP2;ratioP2;P2;SDS_P1;SDS_P2;PMS_P1;PMS_P2;Temp;Humidity;BMP_temperature;BMP_pressure;BME280_temperature;BME280_humidity;BME280_pressure;Samples;Min_cycle;Max_cycle;Signal;HPM_P1;HPM_P2
2022/07/30 00:02:18;;;;;;;8.07;7.38;;;18.70;99.90;;;-141.84;85.30;20417.50;5051455;28;20632;-66
2022/07/30 00:04:46;;;;;;;7.45;6.63;;;18.70;99.90;;;-141.84;85.79;20389.03;5031337;28;20230;-66
2022/07/30 00:07:16;;;;;;;7.90;7.13;;;18.70;99.90;;;-141.84;86.78;20435.78;5030719;28;20226;-66
2022/07/30 00:09:44;;;;;;;8.25;7.45;;;18.70;99.90;;;-141.84;88.12;20342.28;5030725;28;20226;-66
2022/07/30 00:12:12;;;;;;;8.27;7.47;;;18.70;99.90;;;-141.84;88.74;20348.38;5030606;28;20615;-66
2022/07/30 00:14:41;;;;;;;8.75;7.93;;;18.70;99.90;;;-141.84;88.99;20340.25;5030522;28;20527;-66
2022/07/30 00:17:09;;;;;;;8.63;7.93;;;18.70;99.90;;;-141.84;89.24;20346.34;5031144;28;20305;-65
2022/07/30 00:19:37;;;;;;;9.30;8.43;;;18.60;99.90;;;-141.84;90.06;20328.06;5030513;28;20252;-66
2022/07/30 00:22:05;;;;;;;9.80;8.88;;;18.60;99.90;;;-141.84;89.78;20295.53;5030612;28;20229;-65
2022/07/30 00:24:35;;;;;;;9.38;8.57;;;18.60;99.90;;;-141.84;89.64;20291.47;5030494;28;20225;-66
2022/07/30 00:27:03;;;;;;;8.73;7.93;;;18.50;99.90;;;-141.84;89.41;20291.47;5030002;28;20240;-65
2022/07/30 00:29:31;;;;;;;9.13;8.32;;;18.50;99.90;;;-141.84;90.05;20315.88;5030723;28;20244;-67
2022/07/30 00:31:59;;;;;;;10.43;9.43;;;18.60;99.90;;;-141.84;90.10;20277.25;5030331;28;20245;-66
2022/07/30 00:34:27;;;;;;;10.90;9.70;;;18.50;99.90;;;-141.84;89.81;20271.16;5030220;28;20728;-66
2022/07/30 00:36:55;;;;;;;10.55;9.55;;;18.50;99.90;;;-141.84;89.36;20273.19;5029902;28;20230;-67
2022/07/30 00:39:24;;;;;;;10.63;9.73;;;18.50;99.90;;;-141.84;88.49;20246.75;5030107;28;20302;-65
2022/07/30 00:42:00;;;;;;;10.98;10.05;;;18.40;99.90;;;-141.84;87.13;20309.75;5030057;28;20206;-65
2022/07/30 00:44:29;;;;;;;10.88;9.77;;;18.50;99.90;;;-141.84;85.82;20332.13;5030618;28;20710;-65
2022/07/30 00:46:58;;;;;;;10.93;9.93;;;18.50;99.90;;;-141.84;86.80;20315.88;5030240;28;20701;-66
2022/07/30 00:49:27;;;;;;;10.27;9.27;;;18.50;99.90;;;-141.84;87.68;20250.81;5029995;28;20249;-66
2022/07/30 00:51:55;;;;;;;10.90;9.90;;;18.40;99.90;;;-141.84;87.02;20303.66;5029835;28;20230;-65
2022/07/30 00:54:24;;;;;;;9.70;8.85;;;18.40;99.90;;;-141.84;85.75;20299.59;5029987;28;20717;-67
2022/07/30 00:56:52;;;;;;;10.90;9.90;;;18.50;99.90;;;-141.84;85.54;20277.25;5029542;28;20209;-66
2022/07/30 00:59:22;;;;;;;10.32;9.23;;;18.50;99.90;;;-141.84;86.73;20248.78;5035843;28;20267;-67
2022/07/30 01:01:51;;;;;;;11.80;10.25;;;18.40;99.90;;;-141.84;87.81;20212.19;5049728;28;20225;-65
2022/07/30 01:04:19;;;;;;;11.07;9.82;;;18.30;99.90;;;-141.84;88.93;20208.13;5034211;28;20235;-66
2022/07/30 01:06:47;;;;;;;11.05;10.02;;;18.20;99.90;;;-141.84;88.83;20216.25;5029338;28;20313;-66
2022/07/30 01:09:15;;;;;;;11.45;10.35;;;18.20;99.90;;;-141.84;89.67;20191.88;5029795;28;20225;-66
2022/07/30 01:11:44;;;;;;;11.15;10.15;;;18.20;99.90;;;-141.84;89.89;20204.06;5029563;28;20832;-65
2022/07/30 01:14:12;;;;;;;12.10;11.00;;;18.10;99.90;;;-141.84;89.13;20193.91;5030407;28;20206;-65
2022/07/30 01:16:43;;;;;;;11.32;10.32;;;18.20;99.90;;;-141.84;87.99;20224.41;5029390;28;20316;-66
2022/07/30 01:22:16;;;;;;;12.32;11.23;;;18.20;99.90;;;-141.84;88.72;20187.81;5029692;28;20234;-66
2022/07/30 01:24:56;;;;;;;11.98;10.68;;;18.10;99.90;;;-141.84;89.76;20130.91;5029807;28;20234;-65
2022/07/30 01:27:29;;;;;;;12.23;10.95;;;18.10;99.90;;;-141.84;90.69;20124.81;5029188;28;20721;-67
2022/07/30 01:30:01;;;;;;;12.23;11.20;;;18.10;99.90;;;-141.84;90.36;20175.63;5029893;28;20218;-66
2022/07/30 01:32:34;;;;;;;13.82;10.73;;;18.10;99.90;;;-141.84;90.39;20183.75;5029735;28;20205;-66
2022/07/30 01:35:06;;;;;;;11.57;10.48;;;18.10;99.90;;;-141.84;89.07;20159.34;5029905;28;20226;-67
2022/07/30 01:37:36;;;;;;;12.02;10.88;;;18.10;99.90;;;-141.84;89.82;20134.97;5029250;28;20225;-68
2022/07/30 01:40:07;;;;;;;13.05;11.85;;;18.00;99.90;;;-141.84;89.68;20173.59;5029381;28;20913;-65
2022/07/30 01:42:40;;;;;;;12.55;11.25;;;18.00;99.90;;;-141.84;89.21;20128.88;5029213;28;20226;-65
2022/07/30 01:45:11;;;;;;;13.70;12.35;;;18.00;99.90;;;-141.84;89.58;20134.97;5029665;28;20308;-64
2022/07/30 01:47:43;;;;;;;12.82;11.63;;;18.00;99.90;;;-141.84;89.94;20134.97;5029299;28;20305;-66
2022/07/30 01:50:15;;;;;;;13.25;11.98;;;18.00;99.90;;;-141.84;90.78;20110.56;5029890;28;20194;-65
2022/07/30 01:52:47;;;;;;;12.93;11.75;;;17.90;99.90;;;-141.84;90.62;20086.19;5029160;28;20324;-66
2022/07/30 01:55:21;;;;;;;12.93;11.73;;;17.90;99.90;;;-141.84;90.94;20086.19;5029367;28;20236;-68
2022/07/30 01:57:54;;;;;;;12.95;11.68;;;17.90;99.90;;;-141.84;91.52;20092.28;5028915;28;20228;-66
2022/07/30 02:00:24;;;;;;;12.70;11.48;;;17.90;99.90;;;-141.84;90.31;20094.31;5042782;28;20740;-66
2022/07/30 02:02:53;;;;;;;13.35;12.07;;;17.80;99.90;;;-141.84;89.64;20094.31;5045028;28;20277;-67
2022/07/30 02:05:21;;;;;;;11.45;10.45;;;17.80;99.90;;;-141.84;89.52;20057.72;5029625;28;20631;-65
2022/07/30 02:07:58;;;;;;;11.65;10.70;;;17.80;99.90;;;-141.84;90.04;20055.69;5029130;28;20604;-67
2022/07/30 02:10:34;;;;;;;12.52;11.20;;;17.80;99.90;;;-141.84;90.41;20041.47;5028084;28;20231;-65
2022/07/30 02:13:08;;;;;;;12.25;11.10;;;17.70;99.90;;;-141.84;90.31;20049.59;5026812;28;20732;-65
2022/07/30 02:15:45;;;;;;;12.52;11.40;;;17.70;99.90;;;-141.84;90.28;20045.53;5029140;28;20233;-66
2022/07/30 02:18:20;;;;;;;12.18;10.88;;;17.70;99.90;;;-141.84;89.99;20049.59;5028178;28;20226;-66
2022/07/30 02:21:01;;;;;;;13.30;12.00;;;17.70;99.90;;;-141.84;90.07;20008.94;5031874;28;20190;-67
2022/07/30 02:23:40;;;;;;;12.60;11.30;;;17.60;99.90;;;-141.84;89.69;20061.78;5031744;28;20700;-67
2022/07/30 02:26:14;;;;;;;13.15;11.93;;;17.60;99.90;;;-141.84;89.18;20080.09;5032743;28;20220;-65
2022/07/30 02:28:51;;;;;;;13.13;11.88;;;17.60;99.90;;;-141.84;88.70;20039.44;5031234;28;20253;-66
2022/07/30 02:31:24;;;;;;;14.40;13.00;;;17.70;99.90;;;-141.84;89.58;20015.03;5012488;28;20237;-67
2022/07/30 02:33:59;;;;;;;14.80;13.40;;;17.60;99.90;;;-141.84;90.47;19994.72;5012489;28;20222;-67
2022/07/30 02:36:30;;;;;;;14.30;12.90;;;17.60;99.90;;;-141.84;91.71;19960.16;5012874;28;20240;-67
2022/07/30 02:38:59;;;;;;;15.05;13.65;;;17.50;99.90;;;-141.84;93.02;19911.41;5012612;28;20226;-67
2022/07/30 02:41:30;;;;;;;15.05;13.68;;;17.50;99.90;;;-141.84;94.08;19887.00;5017981;28;20776;-66
2022/07/30 02:44:02;;;;;;;16.08;14.68;;;17.40;99.90;;;-141.84;94.18;19848.38;5032475;28;20216;-67
2022/07/30 02:46:31;;;;;;;16.50;14.80;;;17.50;99.90;;;-141.84;93.85;19830.09;5031783;28;20232;-67
2022/07/30 02:49:00;;;;;;;15.90;14.30;;;17.50;99.90;;;-141.84;94.63;19765.06;5032190;28;20816;-67
2022/07/30 02:51:31;;;;;;;17.35;15.75;;;17.50;99.90;;;-141.84;95.69;19769.13;5032422;28;20295;-67
2022/07/30 02:54:03;;;;;;;17.52;15.63;;;17.40;99.90;;;-141.84;96.05;19726.44;5032152;28;20309;-68
2022/07/30 02:56:32;;;;;;;16.80;15.25;;;17.50;99.90;;;-141.84;96.47;19724.41;5032740;28;20197;-67
2022/07/30 02:59:04;;;;;;;16.35;14.80;;;17.50;99.90;;;-141.84;95.60;19687.84;5034548;28;20226;-67
2022/07/30 03:01:35;;;;;;;17.33;15.68;;;17.50;99.90;;;-141.84;94.25;19675.63;5051765;28;20240;-66
2022/07/30 03:04:06;;;;;;;17.20;15.45;;;17.50;99.90;;;-141.84;94.65;19669.53;5038266;28;20597;-67
2022/07/30 03:06:36;;;;;;;17.88;16.17;;;17.50;99.90;;;-141.84;95.30;19600.44;5031977;28;20783;-67
2022/07/30 03:09:05;;;;;;;16.50;14.88;;;17.50;99.90;;;-141.84;96.10;19567.94;5032288;28;20230;-67
2022/07/30 03:11:35;;;;;;;17.13;15.63;;;17.40;99.90;;;-141.84;96.70;19484.59;5031659;28;20643;-68
2022/07/30 03:14:06;;;;;;;17.75;16.13;;;17.50;99.90;;;-141.84;96.85;19452.09;5032375;28;20646;-67
2022/07/30 03:16:38;;;;;;;17.75;16.05;;;17.40;99.90;;;-141.84;97.04;19385.03;5031922;28;20461;-66
2022/07/30 03:19:11;;;;;;;17.90;16.30;;;17.50;99.90;;;-141.84;97.39;19311.88;5031538;28;20605;-67
2022/07/30 03:21:43;;;;;;;17.95;16.25;;;17.50;99.90;;;-141.84;97.78;19257.00;5031552;28;20308;-67
2022/07/30 03:24:14;;;;;;;17.38;15.68;;;17.50;99.90;;;-141.84;97.98;19228.56;5032075;28;20339;-67
2022/07/30 03:26:45;;;;;;;18.00;16.10;;;17.50;99.90;;;-141.84;98.46;19167.59;5031406;28;20435;-66
2022/07/30 03:29:17;;;;;;;17.95;16.10;;;17.50;99.90;;;-141.84;98.69;19110.72;5031708;28;20273;-67
2022/07/30 03:31:49;;;;;;;17.65;16.05;;;17.50;99.90;;;-141.84;99.00;18840.47;5031879;28;20226;-66
2022/07/30 03:34:21;;;;;;;17.60;16.00;;;17.50;99.90;;;-141.84;98.93;18832.34;5031483;28;20222;-67
2022/07/30 03:36:52;;;;;;;18.13;16.30;;;17.50;99.90;;;-141.84;99.06;18767.31;5031762;28;20233;-66
2022/07/30 03:39:23;;;;;;;17.15;15.52;;;17.50;99.90;;;-141.84;99.12;18761.22;5031561;28;20240;-68
2022/07/30 03:41:53;;;;;;;17.77;16.08;;;17.50;99.90;;;-141.84;99.06;18738.88;5031334;28;20244;-67
2022/07/30 03:44:24;;;;;;;17.65;15.95;;;17.50;99.90;;;-141.84;98.93;18728.72;5032100;28;20241;-66
2022/07/30 03:46:53;;;;;;;16.92;15.30;;;17.50;99.90;;;-141.84;98.20;18679.94;5031460;28;20309;-67
2022/07/30 03:49:23;;;;;;;16.58;15.07;;;17.60;99.90;;;-141.84;97.71;18698.22;5031295;28;20615;-67
2022/07/30 03:51:53;;;;;;;16.60;15.00;;;17.60;99.90;;;-141.84;97.64;18655.56;5031469;28;20313;-67
2022/07/30 03:54:22;;;;;;;16.67;15.05;;;17.50;99.90;;;-141.84;97.96;18602.75;5031319;28;20232;-65
2022/07/30 03:56:50;;;;;;;16.38;14.80;;;17.50;99.90;;;-141.84;96.47;18588.53;5031078;28;20325;-66
2022/07/30 03:59:19;;;;;;;16.70;15.02;;;17.60;99.90;;;-141.84;96.24;18562.09;5036838;28;20583;-67
2022/07/30 04:01:49;;;;;;;16.77;15.38;;;17.50;99.90;;;-141.84;96.68;18535.69;5050649;28;20264;-67
2022/07/30 04:04:17;;;;;;;16.95;15.43;;;17.50;99.90;;;-141.84;96.88;18505.22;5035525;28;20230;-66
2022/07/30 04:06:45;;;;;;;17.88;16.10;;;17.50;99.90;;;-141.84;97.27;18509.28;5031177;28;20225;-67
2022/07/30 04:09:14;;;;;;;17.23;15.73;;;17.50;99.90;;;-141.84;97.07;18493.03;5030649;28;20222;-66
2022/07/30 04:11:43;;;;;;;20.50;17.45;;;17.50;99.90;;;-141.84;96.77;18535.69;5030939;28;20198;-67
2022/07/30 04:14:11;;;;;;;19.35;17.60;;;17.60;99.90;;;-141.84;96.51;18499.13;5031353;28;20267;-67
2022/07/30 04:16:50;;;;;;;18.80;17.13;;;17.60;99.90;;;-141.84;96.23;18513.34;5030531;28;20784;-68
2022/07/30 04:19:26;;;;;;;20.75;18.63;;;17.60;99.90;;;-141.84;96.70;18529.59;5030441;28;20300;-67
2022/07/30 04:21:56;;;;;;;20.10;18.27;;;17.60;99.90;;;-141.84;96.38;18511.31;5030638;28;20221;-66
2022/07/30 04:24:26;;;;;;;20.88;18.88;;;17.70;99.90;;;-141.84;95.60;18521.47;5030591;28;20249;-67
2022/07/30 04:26:56;;;;;;;19.88;17.98;;;17.70;99.90;;;-141.84;95.51;18480.84;5030525;28;20323;-67
2022/07/30 04:29:25;;;;;;;20.20;18.30;;;17.70;99.90;;;-141.84;95.20;18513.34;5031054;28;20182;-66
2022/07/30 04:31:55;;;;;;;20.33;18.50;;;17.60;99.90;;;-141.84;95.85;18511.31;5030282;28;20226;-67
2022/07/30 04:34:23;;;;;;;20.60;18.63;;;17.60;99.90;;;-141.84;95.90;18470.69;5030675;28;20320;-66
2022/07/30 04:36:51;;;;;;;19.58;17.67;;;17.60;99.90;;;-141.84;96.01;18478.81;5030672;28;20222;-66
2022/07/30 04:39:19;;;;;;;21.45;19.45;;;17.60;99.90;;;-141.84;96.31;18476.78;5030169;28;20309;-69
2022/07/30 04:41:47;;;;;;;21.88;19.85;;;17.60;99.90;;;-141.84;95.89;18446.31;5029439;28;20300;-68
2022/07/30 04:44:19;;;;;;;20.10;18.20;;;17.60;99.90;;;-141.84;95.79;18438.19;5030794;28;20240;-66
2022/07/30 04:46:47;;;;;;;18.88;17.02;;;17.60;99.90;;;-141.84;95.93;18434.13;5029731;28;20225;-67
2022/07/30 04:49:20;;;;;;;19.98;18.08;;;17.60;99.90;;;-141.84;95.76;18417.84;5029931;28;20716;-66
2022/07/30 04:51:50;;;;;;;18.73;17.05;;;17.60;99.90;;;-141.84;96.67;18403.63;5030101;28;20234;-66
2022/07/30 04:54:21;;;;;;;17.60;16.05;;;17.50;99.90;;;-141.84;96.49;18397.53;5030025;28;20222;-67
2022/07/30 04:56:51;;;;;;;18.13;16.45;;;17.60;99.90;;;-141.84;96.35;18391.44;5029893;28;20225;-66
2022/07/30 04:59:25;;;;;;;17.50;15.75;;;17.60;99.90;;;-141.84;96.20;18363.00;5035948;28;20194;-67
2022/07/30 05:01:57;;;;;;;18.27;16.58;;;17.50;99.90;;;-141.84;95.01;18448.34;5049894;28;20232;-67
2022/07/30 05:04:28;;;;;;;16.95;15.35;;;17.50;99.90;;;-141.84;93.60;18407.69;5033315;28;20254;-66
2022/07/30 05:06:59;;;;;;;15.27;13.88;;;17.50;99.90;;;-141.84;93.17;18448.34;5029841;28;20322;-66
2022/07/30 05:09:29;;;;;;;14.02;12.73;;;17.40;99.90;;;-141.84;92.55;18381.28;5029781;28;20230;-67
2022/07/30 05:11:59;;;;;;;14.25;13.00;;;17.40;99.90;;;-141.84;92.21;18452.41;5029546;28;20245;-67
2022/07/30 05:14:28;;;;;;;13.25;11.95;;;17.40;99.90;;;-141.84;91.93;18452.41;5030275;28;20606;-66
2022/07/30 05:16:56;;;;;;;13.48;12.27;;;17.40;99.90;;;-141.84;91.39;18450.38;5029422;28;20242;-65
2022/07/30 05:19:27;;;;;;;14.50;13.10;;;17.30;99.90;;;-141.84;90.89;18488.97;5029265;28;20288;-66
2022/07/30 05:21:55;;;;;;;13.25;12.10;;;17.40;99.90;;;-141.84;91.25;18484.91;5029446;28;21219;-66
2022/07/30 05:24:23;;;;;;;14.23;12.90;;;17.40;99.90;;;-141.84;92.45;18428.03;5029763;28;20308;-66
2022/07/30 05:26:51;;;;;;;15.05;13.75;;;17.40;99.90;;;-141.84;92.84;18462.56;5029557;28;20298;-67
2022/07/30 05:29:20;;;;;;;15.10;13.70;;;17.50;99.90;;;-141.84;92.71;18472.72;5030211;28;20275;-66
2022/07/30 05:31:48;;;;;;;14.43;13.13;;;17.50;99.90;;;-141.84;91.60;18478.81;5029217;28;20229;-67
2022/07/30 05:34:16;;;;;;;14.20;12.90;;;17.50;99.90;;;-141.84;92.00;18484.91;5029739;28;20324;-66
2022/07/30 05:36:46;;;;;;;14.13;12.88;;;17.60;99.90;;;-141.84;92.30;18423.94;5029412;28;20260;-67
2022/07/30 05:39:15;;;;;;;14.98;13.60;;;17.60;99.90;;;-141.84;92.17;18430.06;5029606;28;20236;-68
2022/07/30 05:41:43;;;;;;;14.15;12.82;;;17.60;99.90;;;-141.84;92.31;18468.66;5028897;28;20696;-67
2022/07/30 05:44:12;;;;;;;15.40;13.93;;;17.50;99.90;;;-141.84;92.21;18423.94;5030285;28;20208;-66
2022/07/30 05:46:40;;;;;;;15.75;14.35;;;17.60;99.90;;;-141.84;92.23;18387.38;5029434;28;20230;-66
2022/07/30 05:49:08;;;;;;;16.30;14.80;;;17.60;99.90;;;-141.84;91.74;18436.16;5029422;28;20315;-66
2022/07/30 05:51:37;;;;;;;16.52;14.93;;;17.70;99.90;;;-141.84;91.30;18454.44;5029322;28;20226;-66
2022/07/30 05:54:06;;;;;;;14.77;13.30;;;17.80;99.90;;;-141.84;90.70;18513.34;5033033;28;20221;-67
2022/07/30 05:56:35;;;;;;;14.32;13.07;;;17.80;99.90;;;-141.84;90.53;18493.03;5033281;28;20309;-66
2022/07/30 05:59:03;;;;;;;14.90;13.52;;;17.90;99.90;;;-141.84;90.47;18529.59;5036415;28;20793;-65
2022/07/30 06:01:31;;;;;;;13.50;12.27;;;18.00;99.90;;;-141.84;89.59;18588.53;5052893;28;20770;-65
2022/07/30 06:04:00;;;;;;;13.90;12.70;;;18.00;99.90;;;-141.84;86.79;18694.16;5040475;28;20287;-67
2022/07/30 06:06:28;;;;;;;12.40;11.18;;;18.10;99.90;;;-141.84;86.18;18744.97;5033352;28;20221;-66
2022/07/30 06:08:56;;;;;;;12.30;11.20;;;18.20;99.90;;;-141.84;83.11;18911.56;5033330;28;20234;-66
2022/07/30 06:11:25;;;;;;;12.32;11.25;;;18.30;99.90;;;-141.84;82.51;18958.31;5033548;28;20630;-64
2022/07/30 06:13:54;;;;;;;12.00;10.98;;;18.40;99.90;;;-141.84;80.54;19092.41;5032552;28;20227;-65
2022/07/30 06:16:22;;;;;;;12.95;10.63;;;18.50;99.90;;;-141.84;79.60;19161.50;5032864;28;20237;-66
2022/07/30 06:18:50;;;;;;;11.48;10.48;;;18.60;99.90;;;-141.84;80.03;19147.28;5033120;28;20272;-65
2022/07/30 06:21:18;;;;;;;12.63;11.52;;;18.60;99.90;;;-141.84;79.85;19129.00;5028569;28;20248;-66
2022/07/30 06:23:46;;;;;;;11.98;10.80;;;18.60;99.90;;;-141.84;80.73;19068.03;5042295;28;20320;-65
2022/07/30 06:26:14;;;;;;;12.25;11.15;;;18.50;99.90;;;-141.84;81.56;19070.06;5033213;28;20317;-66
2022/07/30 06:28:44;;;;;;;10.80;9.95;;;18.60;99.90;;;-141.84;82.28;18994.88;5032748;28;20458;-67
2022/07/30 06:31:12;;;;;;;12.27;11.07;;;18.60;99.90;;;-141.84;82.10;19031.47;5032875;28;20221;-66
2022/07/30 06:33:41;;;;;;;12.10;10.93;;;18.60;99.90;;;-141.84;80.85;19106.66;5033202;28;20229;-66
2022/07/30 06:36:10;;;;;;;12.15;11.15;;;18.50;99.90;;;-141.84;80.04;19171.66;5032648;28;20718;-66
2022/07/30 06:38:41;;;;;;;12.23;11.23;;;18.60;99.90;;;-141.84;79.53;19183.84;5032623;28;20658;-66
2022/07/30 06:41:09;;;;;;;11.25;10.30;;;18.60;99.90;;;-141.84;79.65;19159.47;5033141;28;20308;-66
2022/07/30 06:43:37;;;;;;;13.43;12.23;;;18.60;99.90;;;-141.84;78.78;19277.34;5032186;28;20226;-66
2022/07/30 06:46:07;;;;;;;12.88;11.55;;;18.60;99.90;;;-141.84;77.98;19358.63;5032713;28;20230;-66
2022/07/30 06:48:36;;;;;;;12.63;11.43;;;18.70;99.90;;;-141.84;77.07;19405.34;5032106;28;20236;-68
2022/07/30 06:51:04;;;;;;;11.95;10.95;;;18.70;99.90;;;-141.84;76.80;19452.09;5032499;28;20594;-67
2022/07/30 06:53:32;;;;;;;12.32;11.13;;;18.70;99.90;;;-141.84;77.74;19391.13;5032764;28;20208;-67
2022/07/30 06:56:09;;;;;;;11.88;10.88;;;18.70;99.90;;;-141.84;78.42;19356.59;5032666;28;20222;-66
2022/07/30 06:58:38;;;;;;;13.27;11.85;;;18.70;99.90;;;-141.84;77.48;19443.97;5032440;28;20309;-67
2022/07/30 07:01:07;;;;;;;11.48;10.38;;;18.80;99.90;;;-141.84;77.72;19427.72;5051914;28;20324;-68
2022/07/30 07:03:38;;;;;;;10.32;9.40;;;18.70;99.90;;;-141.84;77.36;19423.66;5041656;28;20241;-66
2022/07/30 07:06:08;;;;;;;10.50;9.50;;;18.70;99.90;;;-141.84;77.92;19389.09;5031804;28;20709;-67
2022/07/30 07:08:37;;;;;;;9.65;8.75;;;18.60;99.90;;;-141.84;77.71;19391.13;5032119;28;20202;-66
2022/07/30 07:11:05;;;;;;;9.70;8.70;;;18.60;99.90;;;-141.84;77.46;19415.50;5032212;28;20202;-66
2022/07/30 07:13:33;;;;;;;10.02;8.75;;;18.70;99.90;;;-141.84;76.43;19466.31;5031825;28;20316;-66
2022/07/30 07:16:02;;;;;;;9.55;8.65;;;18.70;99.90;;;-141.84;76.51;19494.78;5031919;28;20728;-68
2022/07/30 07:18:34;;;;;;;11.73;9.48;;;18.70;99.90;;;-141.84;75.87;19565.91;5031597;28;20316;-67
2022/07/30 07:21:13;;;;;;;10.02;8.75;;;18.70;99.90;;;-141.84;77.36;19454.13;5031750;28;20252;-69
2022/07/30 07:23:52;;;;;;;10.45;9.32;;;18.60;99.90;;;-141.84;76.30;19500.88;5031766;28;20192;-66
2022/07/30 07:26:21;;;;;;;9.70;8.70;;;18.60;99.90;;;-141.84;77.10;19425.69;5033246;28;20202;-66
2022/07/30 07:28:51;;;;;;;9.35;8.45;;;18.60;99.90;;;-141.84;75.88;19557.78;5032172;28;20225;-66
2022/07/30 07:31:19;;;;;;;9.25;8.45;;;18.60;99.90;;;-141.84;76.49;19506.97;5032291;28;20222;-66
2022/07/30 07:34:08;;;;;;;9.20;8.10;;;18.50;99.90;;;-141.84;76.78;19474.44;5025089;28;20598;-66
2022/07/30 07:36:42;;;;;;;11.90;8.68;;;18.50;99.90;;;-141.84;76.87;19490.72;5032361;28;20283;-66
2022/07/30 07:39:10;;;;;;;9.63;8.77;;;18.40;99.90;;;-141.84;76.96;19466.31;5032688;28;20228;-79
2022/07/30 07:41:41;;;;;;;10.05;9.02;;;18.40;99.90;;;-141.84;77.43;19452.09;5033137;28;20211;-78
2022/07/30 07:44:16;;;;;;;9.95;9.05;;;18.40;99.90;;;-141.84;77.94;19378.94;5033391;28;20192;-78
2022/07/30 07:46:44;;;;;;;10.27;8.93;;;18.40;99.90;;;-141.84;77.96;19352.53;5032456;28;20230;-78
2022/07/30 07:49:14;;;;;;;9.52;8.48;;;18.30;99.90;;;-141.84;78.47;19332.19;5031959;28;20601;-79
2022/07/30 07:51:42;;;;;;;9.85;8.98;;;18.30;99.90;;;-141.84;78.36;19322.03;5032396;28;20218;-78
2022/07/30 07:54:15;;;;;;;9.45;8.65;;;18.20;99.90;;;-141.84;78.85;19283.44;5032173;28;20305;-78
2022/07/30 07:56:51;;;;;;;9.00;8.20;;;18.20;99.90;;;-141.84;78.94;19259.03;5032248;28;20268;-79
2022/07/30 07:59:20;;;;;;;9.60;8.63;;;18.30;99.90;;;-141.84;79.31;19246.84;5032830;28;20233;-78
2022/07/30 08:01:49;;;;;;;11.85;9.20;;;18.30;99.90;;;-141.84;78.89;19242.78;5031812;28;20229;-79
2022/07/30 08:04:19;;;;;;;9.55;8.63;;;18.30;99.90;;;-141.84;77.72;19340.31;5031394;28;20230;-78
2022/07/30 08:06:47;;;;;;;10.27;9.25;;;18.30;99.90;;;-141.84;78.35;19342.34;5030845;28;20233;-79
2022/07/30 08:09:15;;;;;;;9.55;8.52;;;18.30;99.90;;;-141.84;79.77;19232.63;5031320;28;20226;-79
2022/07/30 08:11:43;;;;;;;10.65;9.65;;;18.30;99.90;;;-141.84;81.54;19106.66;5031026;28;20780;-78
2022/07/30 08:14:12;;;;;;;10.65;9.13;;;18.30;99.90;;;-141.84;82.10;19057.88;5031539;28;20202;-79
2022/07/30 08:16:40;;;;;;;9.95;9.05;;;18.30;99.90;;;-141.84;81.07;19108.69;5030898;28;20765;-79
2022/07/30 08:19:08;;;;;;;9.73;8.82;;;18.30;99.90;;;-141.84;81.23;19102.56;5030615;28;20230;-79
2022/07/30 08:21:38;;;;;;;8.98;8.18;;;18.30;99.90;;;-141.84;80.94;19112.75;5030819;28;20798;-78
2022/07/30 08:24:07;;;;;;;10.40;9.20;;;18.30;99.90;;;-141.84;80.69;19114.78;5031764;28;20595;-78
2022/07/30 08:26:36;;;;;;;9.15;8.25;;;18.30;99.90;;;-141.84;80.21;19131.03;5031154;28;20202;-78
2022/07/30 08:29:04;;;;;;;11.00;9.00;;;18.30;99.90;;;-141.84;81.56;19053.81;5031633;28;20674;-77
2022/07/30 08:31:32;;;;;;;12.15;9.02;;;18.30;99.90;;;-141.84;81.27;19059.91;5031530;28;20218;-78
2022/07/30 08:34:00;;;;;;;9.45;8.45;;;18.20;99.90;;;-141.84;81.06;19074.13;5031716;28;20229;-78
2022/07/30 08:36:28;;;;;;;10.23;9.20;;;18.20;99.90;;;-141.84;79.99;19147.28;5031969;28;20314;-78
2022/07/30 08:38:58;;;;;;;9.10;8.30;;;18.30;99.90;;;-141.84;80.44;19157.44;5028959;28;20231;-77
2022/07/30 08:41:27;;;;;;;10.85;9.35;;;18.30;99.90;;;-141.84;80.10;19124.94;5031806;28;20202;-78
2022/07/30 08:43:59;;;;;;;9.32;8.48;;;18.30;99.90;;;-141.84;80.64;19120.88;5031941;28;20322;-79
2022/07/30 08:46:31;;;;;;;10.25;9.20;;;18.30;99.90;;;-141.84;81.19;19074.13;5032011;28;20244;-78
2022/07/30 08:49:00;;;;;;;12.45;9.40;;;18.40;99.90;;;-141.84;80.94;19086.31;5031727;28;20229;-79
2022/07/30 08:51:36;;;;;;;8.60;7.68;;;18.40;99.90;;;-141.84;80.77;19122.91;5031981;28;20229;-77
2022/07/30 08:54:06;;;;;;;9.40;8.50;;;18.50;99.90;;;-141.84;80.26;19155.41;5031312;28;20226;-79
2022/07/30 08:56:35;;;;;;;10.18;8.93;;;18.60;99.90;;;-141.84;78.32;19309.84;5031592;28;20279;-79
2022/07/30 08:59:04;;;;;;;9.90;8.90;;;18.50;99.90;;;-141.84;78.92;19263.09;5034778;28;20201;-79
2022/07/30 09:01:32;;;;;;;10.90;9.35;;;18.60;99.90;;;-141.84;77.62;19344.41;5050965;28;20312;-78
2022/07/30 09:04:00;;;;;;;10.07;9.07;;;18.60;99.90;;;-141.84;78.89;19313.91;5038291;28;20246;-80
2022/07/30 09:06:29;;;;;;;10.27;9.38;;;18.70;99.90;;;-141.84;79.72;19242.78;5031442;28;20732;-78
2022/07/30 09:08:57;;;;;;;10.57;9.57;;;18.70;99.90;;;-141.84;80.27;19210.28;5030726;28;20222;-78
2022/07/30 09:11:27;;;;;;;10.00;9.07;;;18.70;99.90;;;-141.84;80.76;19208.25;5031783;28;20304;-78
2022/07/30 09:13:55;;;;;;;11.18;9.20;;;18.70;99.90;;;-141.84;81.22;19151.34;5030787;28;20226;-79
2022/07/30 09:16:26;;;;;;;11.43;10.40;;;18.70;99.90;;;-141.84;81.26;19104.59;5030980;28;20230;-77
2022/07/30 09:18:55;;;;;;;10.65;9.55;;;18.50;99.90;;;-141.84;82.43;19000.97;5030919;28;20870;-78
2022/07/30 09:21:27;;;;;;;11.45;10.35;;;18.40;99.90;;;-141.84;82.69;18954.25;5031079;28;20280;-79
2022/07/30 09:24:00;;;;;;;10.63;9.63;;;18.40;99.90;;;-141.84;83.37;18964.41;5030850;28;20234;-78
2022/07/30 09:26:31;;;;;;;12.40;9.52;;;18.40;99.90;;;-141.84;83.00;18968.47;5032427;28;20281;-79
2022/07/30 09:29:17;;;;;;;10.60;9.60;;;18.40;99.90;;;-141.84;83.54;18919.69;5031342;28;20296;-78
2022/07/30 09:31:55;;;;;;;12.82;11.35;;;18.30;99.90;;;-141.84;83.81;18887.19;5030984;28;20603;-77
2022/07/30 09:34:26;;;;;;;11.95;10.85;;;18.30;99.90;;;-141.84;83.57;18887.19;5030737;28;20249;-78
2022/07/30 09:36:55;;;;;;;11.70;10.60;;;18.30;99.90;;;-141.84;84.58;18840.47;5030695;28;20226;-77
2022/07/30 09:39:34;;;;;;;12.48;11.38;;;18.30;99.90;;;-141.84;85.64;18840.47;5030427;28;20317;-78
2022/07/30 09:42:17;;;;;;;13.15;11.77;;;18.30;99.90;;;-141.84;86.26;18785.59;5031039;28;20232;-77
2022/07/30 09:44:47;;;;;;;13.93;12.57;;;18.40;99.90;;;-141.84;85.93;18742.94;5030862;28;20281;-76
2022/07/30 09:47:31;;;;;;;13.00;11.70;;;18.40;99.90;;;-141.84;85.38;18797.78;5031123;28;20570;-78
2022/07/30 09:50:06;;;;;;;12.38;11.27;;;18.50;99.90;;;-141.84;84.07;18858.75;5031006;28;20212;-76
2022/07/30 09:52:35;;;;;;;13.02;11.70;;;18.60;99.90;;;-141.84;84.08;18899.38;5030277;28;20705;-78
2022/07/30 09:55:12;;;;;;;13.32;12.00;;;18.70;99.90;;;-141.84;84.20;18895.31;5030770;28;20234;-77
2022/07/30 09:57:56;;;;;;;13.20;12.00;;;18.80;99.90;;;-141.84;83.41;18970.50;5030540;28;20240;-79
2022/07/30 10:00:28;;;;;;;10.60;9.70;;;18.90;99.90;;;-141.84;82.94;18954.25;5030436;28;20261;-79
2022/07/30 10:02:59;;;;;;;11.90;10.80;;;19.00;99.90;;;-141.84;81.70;19053.81;5031078;28;20230;-78
2022/07/30 10:05:48;;;;;;;11.80;10.73;;;19.00;99.90;;;-141.84;80.25;19116.81;5032017;28;20702;-77
2022/07/30 10:08:20;;;;;;;11.40;10.15;;;19.00;99.90;;;-141.84;79.22;19254.97;5031064;28;20273;-80
2022/07/30 10:10:49;;;;;;;11.60;10.50;;;19.00;99.90;;;-141.84;78.73;19257.00;5030382;28;20225;-79
2022/07/30 10:13:20;;;;;;;11.68;10.23;;;19.00;99.90;;;-141.84;78.52;19287.50;5010694;28;20736;-78
2022/07/30 10:15:50;;;;;;;11.63;10.45;;;18.90;99.90;;;-141.84;77.87;19330.16;5011025;28;20878;-67